sensor_id;sensor_type;location;lat;lon;timestamp;P1;durP1;ratioP1;P2;durP2;ratioP2
55037;SDS011;40937;53.594;10.034;2023-05-10T00:00:15;5.15;;;3.60;;
55037;SDS011;40937;53.594;10.034;2023-05-10T00:02:48;7.88;;;3.90;;
55037;SDS011;40937;53.594;10.034;2023-05-10T00:05:19;9.25;;;3.40;;
55037;SDS011;40937;53.594;10.034;2023-05-10T00:07:49;5.32;;;3.50;;
55037;SDS011;40937;53.594;10.034;2023-05-10T00:10:17;3.92;;;3.08;;
55037;SDS011;40937;53.594;10.034;2023-05-10T00:12:46;7.97;;;3.60;;
55037;SDS011;40937;53.594;10.034;2023-05-10T00:15:16;3.45;;;3.13;;
55037;SDS011;40937;53.594;10.034;2023-05-10T00:17:47;3.55;;;3.22;;
55037;SDS011;40937;53.594;10.034;2023-05-10T00:20:14;3.83;;;3.45;;
55037;SDS011;40937;53.594;10.034;2023-05-10T00:22:42;6.35;;;3.55;;
55037;SDS011;40937;53.594;10.034;2023-05-10T00:25:15;3.90;;;3.40;;
55037;SDS011;40937;53.594;10.034;2023-05-10T00:34:08;6.68;;;3.75;;
55037;SDS011;40937;53.594;10.034;2023-05-10T00:46:01;3.95;;;3.65;;
55037;SDS011;40937;53.594;10.034;2023-05-10T00:48:28;3.90;;;3.60;;
55037;SDS011;40937;53.594;10.034;2023-05-10T00:50:56;3.65;;;3.35;;
55037;SDS011;40937;53.594;10.034;2023-05-10T00:53:23;12.27;;;3.60;;
55037;SDS011;40937;53.594;10.034;2023-05-10T00:55:51;5.28;;;4.10;;
55037;SDS011;40937;53.594;10.034;2023-05-10T00:58:18;4.72;;;4.22;;
55037;SDS011;40937;53.594;10.034;2023-05-10T01:00:46;8.40;;;4.28;;
55037;SDS011;40937;53.594;10.034;2023-05-10T01:03:15;8.55;;;3.80;;
55037;SDS011;40937;53.594;10.034;2023-05-10T01:05:43;5.18;;;3.58;;
55037;SDS011;40937;53.594;10.034;2023-05-10T01:08:10;4.20;;;3.90;;
55037;SDS011;40937;53.594;10.034;2023-05-10T01:10:37;8.00;;;3.80;;
55037;SDS011;40937;53.594;10.034;2023-05-10T01:13:04;4.05;;;3.75;;
55037;SDS011;40937;53.594;10.034;2023-05-10T01:15:32;7.18;;;3.83;;
55037;SDS011;40937;53.594;10.034;2023-05-10T01:17:59;7.63;;;3.88;;
55037;SDS011;40937;53.594;10.034;2023-05-10T01:20:32;10.57;;;3.63;;
55037;SDS011;40937;53.594;10.034;2023-05-10T01:23:10;5.85;;;3.30;;
55037;SDS011;40937;53.594;10.034;2023-05-10T01:26:02;7.15;;;3.65;;
55037;SDS011;40937;53.594;10.034;2023-05-10T01:28:52;8.23;;;4.00;;
55037;SDS011;40937;53.594;10.034;2023-05-10T01:31:59;8.40;;;3.53;;
55037;SDS011;40937;53.594;10.034;2023-05-10T01:34:34;13.18;;;4.65;;
55037;SDS011;40937;53.594;10.034;2023-05-10T01:37:07;8.73;;;4.00;;
55037;SDS011;40937;53.594;10.034;2023-05-10T01:39:39;5.88;;;3.90;;
55037;SDS011;40937;53.594;10.034;2023-05-10T01:42:14;5.20;;;3.47;;
55037;SDS011;40937;53.594;10.034;2023-05-10T01:44:46;6.35;;;4.10;;
55037;SDS011;40937;53.594;10.034;2023-05-10T01:47:23;11.77;;;4.10;;
55037;SDS011;40937;53.594;10.034;2023-05-10T01:49:58;4.97;;;3.65;;
55037;SDS011;40937;53.594;10.034;2023-05-10T01:52:30;6.63;;;4.03;;
55037;SDS011;40937;53.594;10.034;2023-05-10T01:55:00;8.57;;;3.58;;
55037;SDS011;40937;53.594;10.034;2023-05-10T01:57:31;4.13;;;3.70;;
55037;SDS011;40937;53.594;10.034;2023-05-10T02:00:01;4.90;;;3.40;;
55037;SDS011;40937;53.594;10.034;2023-05-10T02:02:45;4.40;;;3.53;;
55037;SDS011;40937;53.594;10.034;2023-05-10T02:05:15;5.18;;;4.13;;
55037;SDS011;40937;53.594;10.034;2023-05-10T02:07:43;4.22;;;3.83;;
55037;SDS011;40937;53.594;10.034;2023-05-10T02:10:12;3.78;;;3.47;;
55037;SDS011;40937;53.594;10.034;2023-05-10T02:12:41;3.95;;;3.65;;
55037;SDS011;40937;53.594;10.034;2023-05-10T02:15:10;7.25;;;4.03;;
55037;SDS011;40937;53.594;10.034;2023-05-10T02:17:39;7.97;;;4.03;;
55037;SDS011;40937;53.594;10.034;2023-05-10T02:20:10;5.28;;;3.75;;
55037;SDS011;40937;53.594;10.034;2023-05-10T02:22:39;5.35;;;3.72;;
55037;SDS011;40937;53.594;10.034;2023-05-10T02:25:08;6.55;;;4.03;;
55037;SDS011;40937;53.594;10.034;2023-05-10T02:27:37;4.65;;;3.63;;
55037;SDS011;40937;53.594;10.034;2023-05-10T02:30:07;5.78;;;4.15;;
55037;SDS011;40937;53.594;10.034;2023-05-10T02:32:36;4.05;;;3.60;;
55037;SDS011;40937;53.594;10.034;2023-05-10T02:35:07;7.00;;;4.15;;
55037;SDS011;40937;53.594;10.034;2023-05-10T02:37:37;5.15;;;3.60;;
55037;SDS011;40937;53.594;10.034;2023-05-10T02:40:05;13.50;;;4.03;;
55037;SDS011;40937;53.594;10.034;2023-05-10T02:42:35;4.40;;;3.80;;
55037;SDS011;40937;53.594;10.034;2023-05-10T02:45:05;4.53;;;3.65;;
55037;SDS011;40937;53.594;10.034;2023-05-10T02:47:41;4.22;;;3.83;;
55037;SDS011;40937;53.594;10.034;2023-05-10T02:50:10;3.47;;;3.17;;
55037;SDS011;40937;53.594;10.034;2023-05-10T02:52:39;7.70;;;4.28;;
55037;SDS011;40937;53.594;10.034;2023-05-10T02:55:09;4.72;;;3.85;;
55037;SDS011;40937;53.594;10.034;2023-05-10T02:57:40;4.78;;;3.72;;
55037;SDS011;40937;53.594;10.034;2023-05-10T03:00:10;6.47;;;3.45;;
55037;SDS011;40937;53.594;10.034;2023-05-10T03:02:38;6.70;;;4.25;;
55037;SDS011;40937;53.594;10.034;2023-05-10T03:05:05;9.38;;;3.65;;
55037;SDS011;40937;53.594;10.034;2023-05-10T03:07:34;4.55;;;4.20;;
55037;SDS011;40937;53.594;10.034;2023-05-10T03:10:02;3.90;;;3.60;;
55037;SDS011;40937;53.594;10.034;2023-05-10T03:12:37;8.60;;;3.60;;
55037;SDS011;40937;53.594;10.034;2023-05-10T03:15:15;4.15;;;3.78;;
55037;SDS011;40937;53.594;10.034;2023-05-10T03:17:51;6.47;;;3.60;;
55037;SDS011;40937;53.594;10.034;2023-05-10T03:20:25;4.10;;;3.80;;
55037;SDS011;40937;53.594;10.034;2023-05-10T03:22:59;8.38;;;4.03;;
55037;SDS011;40937;53.594;10.034;2023-05-10T03:25:31;4.80;;;3.67;;
55037;SDS011;40937;53.594;10.034;2023-05-10T03:28:00;4.43;;;3.75;;
55037;SDS011;40937;53.594;10.034;2023-05-10T03:30:28;6.20;;;4.03;;
55037;SDS011;40937;53.594;10.034;2023-05-10T03:32:56;6.32;;;4.20;;
55037;SDS011;40937;53.594;10.034;2023-05-10T03:35:24;7.78;;;4.30;;
55037;SDS011;40937;53.594;10.034;2023-05-10T03:37:51;5.38;;;3.92;;
55037;SDS011;40937;53.594;10.034;2023-05-10T03:40:21;9.68;;;3.92;;
55037;SDS011;40937;53.594;10.034;2023-05-10T03:42:48;5.03;;;3.92;;
55037;SDS011;40937;53.594;10.034;2023-05-10T03:45:16;4.55;;;4.05;;
55037;SDS011;40937;53.594;10.034;2023-05-10T03:47:44;6.10;;;3.75;;
55037;SDS011;40937;53.594;10.034;2023-05-10T03:50:12;8.43;;;3.75;;
55037;SDS011;40937;53.594;10.034;2023-05-10T03:52:41;6.60;;;4.05;;
55037;SDS011;40937;53.594;10.034;2023-05-10T03:55:11;6.93;;;3.92;;
55037;SDS011;40937;53.594;10.034;2023-05-10T03:57:40;11.05;;;4.28;;
55037;SDS011;40937;53.594;10.034;2023-05-10T04:00:08;13.88;;;4.13;;
55037;SDS011;40937;53.594;10.034;2023-05-10T04:02:42;5.05;;;4.38;;
55037;SDS011;40937;53.594;10.034;2023-05-10T04:05:15;5.15;;;3.50;;
55037;SDS011;40937;53.594;10.034;2023-05-10T04:07:42;6.05;;;3.65;;
55037;SDS011;40937;53.594;10.034;2023-05-10T04:10:10;6.05;;;4.13;;
55037;SDS011;40937;53.594;10.034;2023-05-10T04:12:39;7.45;;;3.75;;
55037;SDS011;40937;53.594;10.034;2023-05-10T04:15:07;4.80;;;4.07;;
55037;SDS011;40937;53.594;10.034;2023-05-10T04:17:35;5.93;;;4.25;;
55037;SDS011;40937;53.594;10.034;2023-05-10T04:20:03;7.28;;;3.90;;
55037;SDS011;40937;53.594;10.034;2023-05-10T04:22:31;4.47;;;3.92;;
55037;SDS011;40937;53.594;10.034;2023-05-10T04:24:59;4.43;;;3.83;;
55037;SDS011;40937;53.594;10.034;2023-05-10T04:27:26;5.65;;;4.15;;
55037;SDS011;40937;53.594;10.034;2023-05-10T04:29:54;5.85;;;4.10;;
55037;SDS011;40937;53.594;10.034;2023-05-10T04:32:21;6.80;;;4.10;;
55037;SDS011;40937;53.594;10.034;2023-05-10T04:34:49;9.50;;;4.22;;
55037;SDS011;40937;53.594;10.034;2023-05-10T04:37:17;5.50;;;4.13;;
55037;SDS011;40937;53.594;10.034;2023-05-10T04:39:47;9.45;;;4.78;;
55037;SDS011;40937;53.594;10.034;2023-05-10T04:42:14;7.50;;;4.35;;
55037;SDS011;40937;53.594;10.034;2023-05-10T04:44:42;4.13;;;3.72;;
55037;SDS011;40937;53.594;10.034;2023-05-10T04:47:11;5.13;;;4.72;;
55037;SDS011;40937;53.594;10.034;2023-05-10T04:49:39;4.53;;;4.10;;
55037;SDS011;40937;53.594;10.034;2023-05-10T04:52:06;9.02;;;3.80;;
55037;SDS011;40937;53.594;10.034;2023-05-10T04:54:34;8.05;;;4.03;;
55037;SDS011;40937;53.594;10.034;2023-05-10T04:57:02;5.68;;;4.40;;
55037;SDS011;40937;53.594;10.034;2023-05-10T04:59:29;5.72;;;3.90;;
55037;SDS011;40937;53.594;10.034;2023-05-10T05:01:56;12.73;;;4.53;;
55037;SDS011;40937;53.594;10.034;2023-05-10T05:04:25;4.43;;;4.00;;
55037;SDS011;40937;53.594;10.034;2023-05-10T05:06:52;8.02;;;4.32;;
55037;SDS011;40937;53.594;10.034;2023-05-10T05:09:19;9.38;;;4.30;;
55037;SDS011;40937;53.594;10.034;2023-05-10T05:11:46;6.60;;;3.75;;
55037;SDS011;40937;53.594;10.034;2023-05-10T05:14:14;4.35;;;4.00;;
55037;SDS011;40937;53.594;10.034;2023-05-10T05:16:41;4.25;;;3.85;;
55037;SDS011;40937;53.594;10.034;2023-05-10T05:19:08;13.38;;;4.13;;
55037;SDS011;40937;53.594;10.034;2023-05-10T05:21:37;5.05;;;4.18;;
55037;SDS011;40937;53.594;10.034;2023-05-10T05:24:05;4.78;;;4.38;;
55037;SDS011;40937;53.594;10.034;2023-05-10T05:26:32;11.60;;;4.03;;
55037;SDS011;40937;53.594;10.034;2023-05-10T05:29:00;5.72;;;3.97;;
55037;SDS011;40937;53.594;10.034;2023-05-10T05:31:27;6.53;;;3.97;;
55037;SDS011;40937;53.594;10.034;2023-05-10T05:33:54;7.72;;;4.47;;
55037;SDS011;40937;53.594;10.034;2023-05-10T05:36:22;8.60;;;4.22;;
55037;SDS011;40937;53.594;10.034;2023-05-10T05:38:50;4.53;;;4.10;;
55037;SDS011;40937;53.594;10.034;2023-05-10T05:41:17;5.30;;;4.20;;
55037;SDS011;40937;53.594;10.034;2023-05-10T05:43:45;10.63;;;4.43;;
55037;SDS011;40937;53.594;10.034;2023-05-10T05:46:13;8.38;;;4.13;;
55037;SDS011;40937;53.594;10.034;2023-05-10T05:48:40;4.68;;;3.88;;
55037;SDS011;40937;53.594;10.034;2023-05-10T05:51:07;7.20;;;4.55;;
55037;SDS011;40937;53.594;10.034;2023-05-10T05:53:35;4.85;;;4.40;;
55037;SDS011;40937;53.594;10.034;2023-05-10T05:56:03;10.52;;;6.40;;
55037;SDS011;40937;53.594;10.034;2023-05-10T05:58:31;5.22;;;4.40;;
55037;SDS011;40937;53.594;10.034;2023-05-10T06:00:58;6.68;;;4.35;;
55037;SDS011;40937;53.594;10.034;2023-05-10T06:03:26;13.50;;;4.63;;
55037;SDS011;40937;53.594;10.034;2023-05-10T06:05:53;6.32;;;4.45;;
55037;SDS011;40937;53.594;10.034;2023-05-10T06:08:20;4.88;;;4.35;;
55037;SDS011;40937;53.594;10.034;2023-05-10T06:10:50;9.80;;;3.83;;
55037;SDS011;40937;53.594;10.034;2023-05-10T06:13:18;4.97;;;4.00;;
55037;SDS011;40937;53.594;10.034;2023-05-10T06:15:46;5.07;;;4.00;;
55037;SDS011;40937;53.594;10.034;2023-05-10T06:18:13;13.88;;;3.83;;
55037;SDS011;40937;53.594;10.034;2023-05-10T06:20:41;6.35;;;4.05;;
55037;SDS011;40937;53.594;10.034;2023-05-10T06:23:08;4.57;;;4.18;;
55037;SDS011;40937;53.594;10.034;2023-05-10T06:25:36;6.15;;;4.25;;
55037;SDS011;40937;53.594;10.034;2023-05-10T06:28:03;7.07;;;3.95;;
55037;SDS011;40937;53.594;10.034;2023-05-10T06:30:32;5.03;;;3.83;;
55037;SDS011;40937;53.594;10.034;2023-05-10T06:32:59;5.20;;;4.43;;
55037;SDS011;40937;53.594;10.034;2023-05-10T06:35:27;13.60;;;4.43;;
55037;SDS011;40937;53.594;10.034;2023-05-10T06:37:55;4.45;;;3.85;;
55037;SDS011;40937;53.594;10.034;2023-05-10T06:40:22;4.30;;;3.90;;
55037;SDS011;40937;53.594;10.034;2023-05-10T06:42:49;4.57;;;4.20;;
55037;SDS011;40937;53.594;10.034;2023-05-10T06:45:17;8.70;;;4.28;;
55037;SDS011;40937;53.594;10.034;2023-05-10T06:47:46;3.90;;;3.60;;
55037;SDS011;40937;53.594;10.034;2023-05-10T06:50:22;4.57;;;4.25;;
55037;SDS011;40937;53.594;10.034;2023-05-10T06:53:10;4.63;;;4.05;;
55037;SDS011;40937;53.594;10.034;2023-05-10T07:02:50;5.65;;;4.50;;
55037;SDS011;40937;53.594;10.034;2023-05-10T07:06:35;4.28;;;3.72;;
55037;SDS011;40937;53.594;10.034;2023-05-10T07:09:44;5.00;;;4.50;;
55037;SDS011;40937;53.594;10.034;2023-05-10T07:16:03;11.40;;;4.00;;
55037;SDS011;40937;53.594;10.034;2023-05-10T07:19:11;4.45;;;4.05;;
55037;SDS011;40937;53.594;10.034;2023-05-10T07:21:47;6.53;;;4.55;;
55037;SDS011;40937;53.594;10.034;2023-05-10T07:28:45;12.48;;;4.38;;
55037;SDS011;40937;53.594;10.034;2023-05-10T07:32:23;9.35;;;4.60;;
55037;SDS011;40937;53.594;10.034;2023-05-10T07:50:17;7.05;;;4.30;;
55037;SDS011;40937;53.594;10.034;2023-05-10T07:52:44;6.28;;;4.28;;
55037;SDS011;40937;53.594;10.034;2023-05-10T07:55:11;5.15;;;4.47;;
55037;SDS011;40937;53.594;10.034;2023-05-10T07:57:41;10.23;;;4.18;;
55037;SDS011;40937;53.594;10.034;2023-05-10T08:00:11;5.72;;;4.63;;
55037;SDS011;40937;53.594;10.034;2023-05-10T08:02:40;6.80;;;4.30;;
55037;SDS011;40937;53.594;10.034;2023-05-10T08:05:07;5.18;;;4.43;;
55037;SDS011;40937;53.594;10.034;2023-05-10T08:07:35;4.38;;;3.97;;
55037;SDS011;40937;53.594;10.034;2023-05-10T08:10:03;6.95;;;4.32;;
55037;SDS011;40937;53.594;10.034;2023-05-10T08:12:30;4.85;;;4.45;;
55037;SDS011;40937;53.594;10.034;2023-05-10T08:14:57;8.00;;;4.15;;
55037;SDS011;40937;53.594;10.034;2023-05-10T08:17:26;4.93;;;4.20;;
55037;SDS011;40937;53.594;10.034;2023-05-10T08:19:53;8.05;;;4.32;;
55037;SDS011;40937;53.594;10.034;2023-05-10T08:22:22;5.40;;;4.50;;
55037;SDS011;40937;53.594;10.034;2023-05-10T08:24:50;5.30;;;3.83;;
55037;SDS011;40937;53.594;10.034;2023-05-10T08:27:17;6.65;;;4.78;;
55037;SDS011;40937;53.594;10.034;2023-05-10T08:29:44;6.20;;;4.72;;
55037;SDS011;40937;53.594;10.034;2023-05-10T08:32:11;5.18;;;4.63;;
55037;SDS011;40937;53.594;10.034;2023-05-10T08:34:40;6.32;;;4.65;;
55037;SDS011;40937;53.594;10.034;2023-05-10T08:37:07;6.07;;;4.38;;
55037;SDS011;40937;53.594;10.034;2023-05-10T08:39:36;6.75;;;4.75;;
55037;SDS011;40937;53.594;10.034;2023-05-10T08:42:03;9.15;;;4.18;;
55037;SDS011;40937;53.594;10.034;2023-05-10T08:44:32;10.43;;;4.75;;
55037;SDS011;40937;53.594;10.034;2023-05-10T08:47:02;4.57;;;4.18;;
55037;SDS011;40937;53.594;10.034;2023-05-10T08:49:32;4.65;;;4.30;;
55037;SDS011;40937;53.594;10.034;2023-05-10T08:52:03;8.52;;;4.43;;
55037;SDS011;40937;53.594;10.034;2023-05-10T08:54:31;5.57;;;4.85;;
55037;SDS011;40937;53.594;10.034;2023-05-10T08:56:59;9.48;;;4.57;;
55037;SDS011;40937;53.594;10.034;2023-05-10T08:59:27;7.47;;;4.55;;
55037;SDS011;40937;53.594;10.034;2023-05-10T09:01:55;6.63;;;4.45;;
55037;SDS011;40937;53.594;10.034;2023-05-10T09:04:24;9.80;;;4.00;;
55037;SDS011;40937;53.594;10.034;2023-05-10T09:06:52;5.10;;;4.00;;
55037;SDS011;40937;53.594;10.034;2023-05-10T09:09:20;4.63;;;4.32;;
55037;SDS011;40937;53.594;10.034;2023-05-10T09:11:48;6.38;;;4.72;;
55037;SDS011;40937;53.594;10.034;2023-05-10T09:14:16;11.30;;;4.78;;
55037;SDS011;40937;53.594;10.034;2023-05-10T09:16:45;5.32;;;4.82;;
55037;SDS011;40937;53.594;10.034;2023-05-10T09:19:13;4.88;;;4.40;;
55037;SDS011;40937;53.594;10.034;2023-05-10T09:21:43;10.10;;;4.53;;
55037;SDS011;40937;53.594;10.034;2023-05-10T09:24:11;9.95;;;4.25;;
55037;SDS011;40937;53.594;10.034;2023-05-10T09:26:46;5.65;;;4.53;;
55037;SDS011;40937;53.594;10.034;2023-05-10T09:29:14;10.02;;;5.07;;
55037;SDS011;40937;53.594;10.034;2023-05-10T09:31:46;6.43;;;4.55;;
55037;SDS011;40937;53.594;10.034;2023-05-10T09:34:17;21.67;;;4.57;;
55037;SDS011;40937;53.594;10.034;2023-05-10T09:36:51;8.23;;;5.07;;
55037;SDS011;40937;53.594;10.034;2023-05-10T09:39:20;6.70;;;5.57;;
55037;SDS011;40937;53.594;10.034;2023-05-10T09:41:49;5.70;;;4.10;;
55037;SDS011;40937;53.594;10.034;2023-05-10T09:44:16;8.80;;;4.95;;
55037;SDS011;40937;53.594;10.034;2023-05-10T09:46:48;8.15;;;4.50;;
55037;SDS011;40937;53.594;10.034;2023-05-10T09:49:17;11.73;;;5.57;;
55037;SDS011;40937;53.594;10.034;2023-05-10T09:51:44;9.05;;;5.18;;
55037;SDS011;40937;53.594;10.034;2023-05-10T09:54:12;13.65;;;4.85;;
55037;SDS011;40937;53.594;10.034;2023-05-10T09:56:41;12.27;;;5.40;;
55037;SDS011;40937;53.594;10.034;2023-05-10T09:59:10;6.50;;;4.65;;
55037;SDS011;40937;53.594;10.034;2023-05-10T10:01:44;7.53;;;4.93;;
55037;SDS011;40937;53.594;10.034;2023-05-10T10:04:16;22.25;;;5.30;;
55037;SDS011;40937;53.594;10.034;2023-05-10T10:06:44;8.02;;;5.47;;
55037;SDS011;40937;53.594;10.034;2023-05-10T10:09:13;7.25;;;5.25;;
55037;SDS011;40937;53.594;10.034;2023-05-10T10:11:41;6.53;;;4.97;;
55037;SDS011;40937;53.594;10.034;2023-05-10T10:14:08;10.52;;;5.47;;
55037;SDS011;40937;53.594;10.034;2023-05-10T10:16:37;7.47;;;6.03;;
55037;SDS011;40937;53.594;10.034;2023-05-10T10:19:05;7.78;;;5.55;;
55037;SDS011;40937;53.594;10.034;2023-05-10T10:21:33;6.93;;;6.10;;
55037;SDS011;40937;53.594;10.034;2023-05-10T10:24:00;7.53;;;5.53;;
55037;SDS011;40937;53.594;10.034;2023-05-10T10:26:30;6.50;;;5.90;;
55037;SDS011;40937;53.594;10.034;2023-05-10T10:29:04;13.20;;;6.22;;
55037;SDS011;40937;53.594;10.034;2023-05-10T10:31:46;6.88;;;6.38;;
55037;SDS011;40937;53.594;10.034;2023-05-10T10:34:21;9.60;;;6.50;;
55037;SDS011;40937;53.594;10.034;2023-05-10T10:36:54;9.60;;;6.47;;
55037;SDS011;40937;53.594;10.034;2023-05-10T10:39:22;6.72;;;6.13;;
55037;SDS011;40937;53.594;10.034;2023-05-10T10:41:52;7.78;;;5.97;;
55037;SDS011;40937;53.594;10.034;2023-05-10T10:44:26;7.38;;;6.13;;
55037;SDS011;40937;53.594;10.034;2023-05-10T10:47:06;7.30;;;6.47;;
55037;SDS011;40937;53.594;10.034;2023-05-10T10:49:44;7.53;;;6.82;;
55037;SDS011;40937;53.594;10.034;2023-05-10T10:52:24;6.85;;;6.35;;
55037;SDS011;40937;53.594;10.034;2023-05-10T10:54:57;9.23;;;7.60;;
55037;SDS011;40937;53.594;10.034;2023-05-10T10:57:26;8.35;;;6.80;;
55037;SDS011;40937;53.594;10.034;2023-05-10T11:02:53;9.70;;;7.63;;
55037;SDS011;40937;53.594;10.034;2023-05-10T11:08:09;7.88;;;7.28;;
55037;SDS011;40937;53.594;10.034;2023-05-10T11:10:49;9.70;;;7.10;;
55037;SDS011;40937;53.594;10.034;2023-05-10T11:13:27;7.57;;;7.07;;
55037;SDS011;40937;53.594;10.034;2023-05-10T11:15:59;8.80;;;7.68;;
55037;SDS011;40937;53.594;10.034;2023-05-10T11:18:38;7.40;;;6.80;;
55037;SDS011;40937;53.594;10.034;2023-05-10T11:21:07;12.70;;;7.85;;
55037;SDS011;40937;53.594;10.034;2023-05-10T11:23:47;7.97;;;7.32;;
55037;SDS011;40937;53.594;10.034;2023-05-10T11:26:16;7.70;;;6.97;;
55037;SDS011;40937;53.594;10.034;2023-05-10T11:28:44;9.82;;;8.65;;
55037;SDS011;40937;53.594;10.034;2023-05-10T11:31:13;8.82;;;8.02;;
55037;SDS011;40937;53.594;10.034;2023-05-10T11:33:45;7.93;;;7.25;;
55037;SDS011;40937;53.594;10.034;2023-05-10T11:36:14;8.30;;;7.63;;
55037;SDS011;40937;53.594;10.034;2023-05-10T11:38:43;8.32;;;7.40;;
55037;SDS011;40937;53.594;10.034;2023-05-10T11:41:12;12.18;;;7.82;;
55037;SDS011;40937;53.594;10.034;2023-05-10T11:43:41;9.77;;;8.02;;
55037;SDS011;40937;53.594;10.034;2023-05-10T11:46:10;8.60;;;7.60;;
55037;SDS011;40937;53.594;10.034;2023-05-10T11:48:38;8.38;;;7.68;;
55037;SDS011;40937;53.594;10.034;2023-05-10T11:51:07;8.80;;;8.02;;
55037;SDS011;40937;53.594;10.034;2023-05-10T11:53:35;8.50;;;7.85;;
55037;SDS011;40937;53.594;10.034;2023-05-10T11:56:03;8.50;;;7.80;;
55037;SDS011;40937;53.594;10.034;2023-05-10T11:58:31;10.82;;;9.35;;
55037;SDS011;40937;53.594;10.034;2023-05-10T12:00:59;10.80;;;9.60;;
55037;SDS011;40937;53.594;10.034;2023-05-10T12:03:27;10.25;;;9.25;;
55037;SDS011;40937;53.594;10.034;2023-05-10T12:05:55;10.52;;;9.65;;
55037;SDS011;40937;53.594;10.034;2023-05-10T12:08:25;9.95;;;9.13;;
55037;SDS011;40937;53.594;10.034;2023-05-10T12:11:04;9.23;;;8.38;;
55037;SDS011;40937;53.594;10.034;2023-05-10T12:13:37;12.25;;;9.15;;
55037;SDS011;40937;53.594;10.034;2023-05-10T12:16:12;11.52;;;8.40;;
55037;SDS011;40937;53.594;10.034;2023-05-10T12:18:40;8.63;;;7.93;;
55037;SDS011;40937;53.594;10.034;2023-05-10T12:21:09;9.82;;;8.25;;
55037;SDS011;40937;53.594;10.034;2023-05-10T12:23:38;8.73;;;7.88;;
55037;SDS011;40937;53.594;10.034;2023-05-10T12:26:06;10.43;;;8.27;;
55037;SDS011;40937;53.594;10.034;2023-05-10T12:28:35;10.68;;;8.38;;
55037;SDS011;40937;53.594;10.034;2023-05-10T12:31:02;9.27;;;8.48;;
55037;SDS011;40937;53.594;10.034;2023-05-10T12:33:35;9.98;;;8.98;;
55037;SDS011;40937;53.594;10.034;2023-05-10T12:36:02;9.80;;;8.97;;
55037;SDS011;40937;53.594;10.034;2023-05-10T12:38:32;13.10;;;8.60;;
55037;SDS011;40937;53.594;10.034;2023-05-10T12:41:02;11.32;;;8.82;;
55037;SDS011;40937;53.594;10.034;2023-05-10T12:43:31;8.15;;;7.55;;
55037;SDS011;40937;53.594;10.034;2023-05-10T12:46:03;8.25;;;7.60;;
55037;SDS011;40937;53.594;10.034;2023-05-10T12:48:31;8.30;;;7.70;;
55037;SDS011;40937;53.594;10.034;2023-05-10T12:50:59;9.05;;;8.35;;
55037;SDS011;40937;53.594;10.034;2023-05-10T12:53:27;9.43;;;8.05;;
55037;SDS011;40937;53.594;10.034;2023-05-10T12:55:54;13.77;;;8.45;;
55037;SDS011;40937;53.594;10.034;2023-05-10T12:58:23;9.25;;;8.48;;
55037;SDS011;40937;53.594;10.034;2023-05-10T13:00:54;8.73;;;7.72;;
55037;SDS011;40937;53.594;10.034;2023-05-10T13:03:22;9.55;;;6.95;;
55037;SDS011;40937;53.594;10.034;2023-05-10T13:05:50;9.65;;;8.30;;
55037;SDS011;40937;53.594;10.034;2023-05-10T13:08:17;8.95;;;8.25;;
55037;SDS011;40937;53.594;10.034;2023-05-10T13:10:48;8.80;;;8.07;;
55037;SDS011;40937;53.594;10.034;2023-05-10T13:13:20;7.95;;;7.40;;
55037;SDS011;40937;53.594;10.034;2023-05-10T13:15:49;12.35;;;7.68;;
55037;SDS011;40937;53.594;10.034;2023-05-10T13:18:16;10.60;;;9.75;;
55037;SDS011;40937;53.594;10.034;2023-05-10T13:20:46;10.13;;;9.32;;
55037;SDS011;40937;53.594;10.034;2023-05-10T13:23:15;8.68;;;7.97;;
55037;SDS011;40937;53.594;10.034;2023-05-10T13:25:42;9.05;;;8.35;;
55037;SDS011;40937;53.594;10.034;2023-05-10T13:28:11;8.15;;;7.53;;
55037;SDS011;40937;53.594;10.034;2023-05-10T13:30:39;9.02;;;8.07;;
55037;SDS011;40937;53.594;10.034;2023-05-10T13:33:08;7.60;;;7.03;;
55037;SDS011;40937;53.594;10.034;2023-05-10T13:35:35;7.03;;;6.53;;
55037;SDS011;40937;53.594;10.034;2023-05-10T13:38:03;6.53;;;6.03;;
55037;SDS011;40937;53.594;10.034;2023-05-10T13:40:33;6.15;;;5.65;;
55037;SDS011;40937;53.594;10.034;2023-05-10T13:43:01;6.45;;;5.95;;
55037;SDS011;40937;53.594;10.034;2023-05-10T13:45:29;6.82;;;6.10;;
55037;SDS011;40937;53.594;10.034;2023-05-10T13:47:58;6.18;;;5.75;;
55037;SDS011;40937;53.594;10.034;2023-05-10T13:53:10;6.43;;;6.03;;
55037;SDS011;40937;53.594;10.034;2023-05-10T14:01:23;5.88;;;5.47;;
55037;SDS011;40937;53.594;10.034;2023-05-10T14:04:56;6.43;;;5.82;;
55037;SDS011;40937;53.594;10.034;2023-05-10T14:08:35;10.80;;;6.72;;
55037;SDS011;40937;53.594;10.034;2023-05-10T14:12:05;6.95;;;6.45;;
55037;SDS011;40937;53.594;10.034;2023-05-10T14:15:47;6.97;;;6.38;;
55037;SDS011;40937;53.594;10.034;2023-05-10T14:19:10;8.88;;;6.28;;
55037;SDS011;40937;53.594;10.034;2023-05-10T14:23:26;6.85;;;6.38;;
55037;SDS011;40937;53.594;10.034;2023-05-10T14:37:27;7.10;;;6.45;;
55037;SDS011;40937;53.594;10.034;2023-05-10T14:41:02;5.85;;;5.35;;
55037;SDS011;40937;53.594;10.034;2023-05-10T14:43:44;5.78;;;5.35;;
55037;SDS011;40937;53.594;10.034;2023-05-10T14:50:27;5.40;;;5.10;;
55037;SDS011;40937;53.594;10.034;2023-05-10T14:53:25;5.75;;;5.30;;
55037;SDS011;40937;53.594;10.034;2023-05-10T14:56:17;5.72;;;5.32;;
55037;SDS011;40937;53.594;10.034;2023-05-10T15:01:58;5.90;;;5.45;;
55037;SDS011;40937;53.594;10.034;2023-05-10T15:07:40;5.53;;;5.22;;
55037;SDS011;40937;53.594;10.034;2023-05-10T15:10:20;5.95;;;5.45;;
55037;SDS011;40937;53.594;10.034;2023-05-10T15:13:26;6.00;;;5.40;;
55037;SDS011;40937;53.594;10.034;2023-05-10T15:16:05;8.45;;;5.63;;
55037;SDS011;40937;53.594;10.034;2023-05-10T15:18:47;6.53;;;5.95;;
55037;SDS011;40937;53.594;10.034;2023-05-10T15:21:32;6.25;;;5.60;;
55037;SDS011;40937;53.594;10.034;2023-05-10T15:24:15;6.50;;;5.95;;
55037;SDS011;40937;53.594;10.034;2023-05-10T15:26:42;7.70;;;6.45;;
55037;SDS011;40937;53.594;10.034;2023-05-10T15:29:50;7.82;;;7.00;;
55037;SDS011;40937;53.594;10.034;2023-05-10T15:32:30;6.93;;;6.32;;
55037;SDS011;40937;53.594;10.034;2023-05-10T15:35:05;6.20;;;5.80;;
55037;SDS011;40937;53.594;10.034;2023-05-10T15:41:11;6.55;;;6.05;;
55037;SDS011;40937;53.594;10.034;2023-05-10T15:43:57;5.32;;;4.97;;
55037;SDS011;40937;53.594;10.034;2023-05-10T15:46:40;6.25;;;5.72;;
55037;SDS011;40937;53.594;10.034;2023-05-10T15:49:45;5.75;;;5.35;;
55037;SDS011;40937;53.594;10.034;2023-05-10T15:55:43;6.60;;;5.03;;
55037;SDS011;40937;53.594;10.034;2023-05-10T15:58:40;6.35;;;5.85;;
55037;SDS011;40937;53.594;10.034;2023-05-10T16:01:17;5.53;;;5.13;;
55037;SDS011;40937;53.594;10.034;2023-05-10T16:07:26;5.00;;;4.60;;
55037;SDS011;40937;53.594;10.034;2023-05-10T16:10:11;4.93;;;4.63;;
55037;SDS011;40937;53.594;10.034;2023-05-10T16:13:30;5.57;;;5.10;;
55037;SDS011;40937;53.594;10.034;2023-05-10T16:19:13;7.38;;;4.70;;
55037;SDS011;40937;53.594;10.034;2023-05-10T16:21:50;6.72;;;6.05;;
55037;SDS011;40937;53.594;10.034;2023-05-10T16:28:03;11.23;;;8.55;;
55037;SDS011;40937;53.594;10.034;2023-05-10T16:30:39;6.35;;;5.07;;
55037;SDS011;40937;53.594;10.034;2023-05-10T16:33:13;5.95;;;4.65;;
55037;SDS011;40937;53.594;10.034;2023-05-10T16:35:45;5.78;;;5.15;;
55037;SDS011;40937;53.594;10.034;2023-05-10T16:38:24;6.50;;;5.40;;
55037;SDS011;40937;53.594;10.034;2023-05-10T16:41:04;5.63;;;4.88;;
55037;SDS011;40937;53.594;10.034;2023-05-10T16:46:28;6.35;;;5.60;;
55037;SDS011;40937;53.594;10.034;2023-05-10T16:49:03;6.75;;;6.25;;